BMV weather

Buon Ma Thuot Airport
Buon Ma Thuot, Dac Lac Province, Vietnam

Public forecast

Using degrees Celsius for public forecast. Weather courtesy of forecast.io.

METAR (pilot weather report)

Closest report is Cam Ranh Airport, 76.0 nm (140.7 km) ESE. Retrieved 2019/03/23 16:00 UTC (11 minutes ago):

VVCR 231600Z 10004KT 9999 FEW015 29/26 Q1013 NOSIG

TAF (pilot weather forecast)

Closest forecast is Cam Ranh Airport, 76.0 nm (140.7 km) ESE. Retrieved 2019/03/23 12:00 UTC (4 hours ago):

TAF VVCR 231100Z 2312/2412 VRB03KT 9999 FEW015 BECMG 2405/2406 04010KT TEMPO 2406/2412 5000 TSRA BKN015 FEW017CB